Time;durP1;ratioP1;P1;durP2;ratioP2;P2;SDS_P1;SDS_P2;PMS_P1;PMS_P2;Temp;Humidity;BMP_temperature;BMP_pressure;BME280_temperature;BME280_humidity;BME280_pressure;Samples;Min_cycle;Max_cycle;Signal;HPM_P1;HPM_P2
2023/11/14 00:00:12;;;;;;;29.40;3.50;;;11.80;99.90;;;;;;5030047;28;20699;-80
2023/11/14 00:02:38;;;;;;;32.67;4.07;;;11.70;99.90;;;;;;5028938;28;20169;-79
2023/11/14 00:05:04;;;;;;;32.40;3.30;;;11.80;99.90;;;;;;5027522;28;20214;-80
2023/11/14 00:07:29;;;;;;;37.78;3.88;;;11.80;99.90;;;;;;5027372;28;20167;-80
2023/11/14 00:09:55;;;;;;;26.53;3.97;;;11.80;99.90;;;;;;5043809;28;20186;-80
2023/11/14 00:12:21;;;;;;;33.20;4.13;;;11.80;99.90;;;;;;5029141;28;20229;-81
2023/11/14 00:14:47;;;;;;;29.40;3.70;;;11.80;99.90;;;;;;5029762;28;20190;-80
2023/11/14 00:17:13;;;;;;;30.42;3.95;;;11.80;99.90;;;;;;5029962;28;20177;-80
2023/11/14 00:19:39;;;;;;;25.83;2.90;;;11.70;99.90;;;;;;5044401;28;20174;-80
2023/11/14 00:22:07;;;;;;;25.00;2.45;;;11.70;99.90;;;;;;5028880;28;20444;-80
2023/11/14 00:24:33;;;;;;;24.95;3.10;;;11.70;99.90;;;;;;5028255;28;20198;-80
2023/11/14 00:27:00;;;;;;;32.07;2.90;;;11.70;99.90;;;;;;5028631;28;20162;-81
2023/11/14 00:29:26;;;;;;;35.95;3.22;;;11.70;99.90;;;;;;5028583;28;20398;-80
2023/11/14 00:31:53;;;;;;;30.15;2.78;;;11.70;99.90;;;;;;5028738;28;20173;-80
2023/11/14 00:34:19;;;;;;;28.95;3.00;;;11.70;99.90;;;;;;5029815;28;20182;-81
2023/11/14 00:36:46;;;;;;;32.38;3.55;;;11.70;99.90;;;;;;5028413;28;20177;-80
2023/11/14 00:39:11;;;;;;;25.10;2.95;;;11.70;99.90;;;;;;5029842;28;20174;-80
2023/11/14 00:41:37;;;;;;;26.47;3.60;;;11.70;99.90;;;;;;5029158;28;20170;-81
2023/11/14 00:44:03;;;;;;;33.43;3.60;;;11.70;99.90;;;;;;5028378;28;20194;-80
2023/11/14 00:46:28;;;;;;;28.47;3.90;;;11.70;99.90;;;;;;5030424;28;20162;-80
2023/11/14 00:48:54;;;;;;;27.30;2.90;;;11.70;99.90;;;;;;5029129;28;20405;-80
2023/11/14 00:51:21;;;;;;;26.77;3.23;;;11.70;99.90;;;;;;5030325;28;20162;-81
2023/11/14 00:53:50;;;;;;;26.10;2.95;;;11.70;99.90;;;;;;5028842;28;20437;-81
2023/11/14 00:56:16;;;;;;;29.13;3.88;;;11.70;99.90;;;;;;5029518;28;20183;-80
2023/11/14 00:58:43;;;;;;;37.97;3.40;;;11.70;99.90;;;;;;5030534;28;20163;-81
2023/11/14 01:01:08;;;;;;;30.17;4.13;;;11.70;99.90;;;;;;5028913;28;20236;-81
2023/11/14 01:03:34;;;;;;;22.10;2.23;;;11.70;99.90;;;;;;5028771;28;20182;-80
2023/11/14 01:06:00;;;;;;;35.13;4.00;;;11.70;99.90;;;;;;5029541;28;20209;-80
2023/11/14 01:08:26;;;;;;;24.10;3.45;;;11.70;99.90;;;;;;5030282;28;20189;-81
2023/11/14 01:10:52;;;;;;;32.40;3.87;;;11.70;99.90;;;;;;5028008;28;20187;-80
2023/11/14 01:13:18;;;;;;;34.40;4.23;;;11.70;99.90;;;;;;5030435;28;20250;-81
2023/11/14 01:15:44;;;;;;;33.05;4.05;;;11.70;99.90;;;;;;5028820;28;20176;-81
2023/11/14 01:18:10;;;;;;;34.80;3.80;;;11.80;99.90;;;;;;5032647;28;20202;-81
2023/11/14 01:20:36;;;;;;;35.47;4.67;;;11.80;99.90;;;;;;5033167;28;20173;-80
2023/11/14 01:23:01;;;;;;;32.77;4.03;;;11.80;99.90;;;;;;5032020;28;20159;-80
2023/11/14 01:25:28;;;;;;;28.40;3.10;;;11.70;99.90;;;;;;5032540;28;20213;-80
2023/11/14 01:27:54;;;;;;;25.20;3.20;;;11.80;99.90;;;;;;5033257;28;20170;-81
2023/11/14 01:30:23;;;;;;;30.87;3.90;;;11.80;99.90;;;;;;5032253;28;20170;-79
2023/11/14 01:32:49;;;;;;;31.58;4.38;;;11.80;99.90;;;;;;5031844;28;20247;-80
2023/11/14 01:35:14;;;;;;;27.50;3.73;;;11.80;99.90;;;;;;5031871;28;20166;-80
2023/11/14 01:37:41;;;;;;;32.73;4.90;;;11.80;99.90;;;;;;5031896;28;20166;-80
2023/11/14 01:40:10;;;;;;;29.48;3.20;;;11.80;99.90;;;;;;5032867;28;20163;-80
2023/11/14 01:42:36;;;;;;;26.05;4.35;;;11.80;99.90;;;;;;5030697;28;20182;-80
2023/11/14 01:45:03;;;;;;;23.40;2.70;;;11.80;99.90;;;;;;5027127;28;20199;-80
2023/11/14 01:47:30;;;;;;;23.80;2.97;;;11.80;99.90;;;;;;5026498;28;20425;-81
2023/11/14 01:49:56;;;;;;;43.40;4.05;;;11.80;99.90;;;;;;5026443;28;20175;-80
2023/11/14 01:52:22;;;;;;;35.67;3.63;;;11.80;99.90;;;;;;5027230;28;20163;-81
2023/11/14 01:54:47;;;;;;;41.07;4.17;;;11.80;99.90;;;;;;5025316;28;20463;-80
2023/11/14 01:57:14;;;;;;;31.50;3.70;;;11.80;99.90;;;;;;5025796;28;20709;-79
2023/11/14 01:59:44;;;;;;;36.38;4.05;;;11.80;99.90;;;;;;5028167;28;20210;-80
2023/11/14 02:02:11;;;;;;;38.20;4.45;;;11.80;99.90;;;;;;5027663;28;20210;-80
2023/11/14 02:04:38;;;;;;;37.85;5.00;;;11.70;99.90;;;;;;5026918;28;20197;-80
2023/11/14 02:07:04;;;;;;;31.15;4.00;;;11.80;99.90;;;;;;5027060;28;20163;-80
2023/11/14 02:09:29;;;;;;;32.43;3.67;;;11.80;99.90;;;;;;5025656;28;20162;-79
2023/11/14 02:11:55;;;;;;;33.17;4.47;;;11.80;99.90;;;;;;5026402;28;20166;-80
2023/11/14 02:14:22;;;;;;;25.92;2.35;;;11.70;99.90;;;;;;5027079;28;20190;-80
2023/11/14 02:16:49;;;;;;;28.48;4.13;;;11.70;99.90;;;;;;5025853;28;20171;-80
2023/11/14 02:19:15;;;;;;;27.63;3.03;;;11.70;99.90;;;;;;5026777;28;20166;-80
2023/11/14 02:21:44;;;;;;;26.27;3.20;;;11.70;99.90;;;;;;5027137;28;20181;-80
2023/11/14 02:24:16;;;;;;;26.42;3.13;;;11.70;99.90;;;;;;5026843;28;20198;-80
2023/11/14 02:26:46;;;;;;;26.10;3.15;;;11.60;99.90;;;;;;5027297;28;20528;-80
2023/11/14 02:29:14;;;;;;;31.52;3.30;;;11.70;99.90;;;;;;5026968;28;20147;-80
2023/11/14 02:31:40;;;;;;;38.60;4.85;;;11.70;99.90;;;;;;5027275;28;20197;-80
2023/11/14 02:34:06;;;;;;;29.05;4.20;;;11.70;99.90;;;;;;5028027;28;20194;-80
2023/11/14 02:36:32;;;;;;;25.75;3.05;;;11.70;99.90;;;;;;5028004;28;20163;-80
2023/11/14 02:38:58;;;;;;;31.50;3.00;;;11.70;99.90;;;;;;5028446;28;20255;-80
2023/11/14 02:41:24;;;;;;;29.83;3.77;;;11.70;99.90;;;;;;5027653;28;20405;-80
2023/11/14 02:43:50;;;;;;;30.17;3.13;;;11.70;99.90;;;;;;5026778;28;20687;-80
2023/11/14 02:46:15;;;;;;;36.00;5.40;;;11.70;99.90;;;;;;5027562;28;20220;-80
2023/11/14 02:48:41;;;;;;;30.37;3.37;;;11.70;99.90;;;;;;5026989;28;20402;-80
2023/11/14 02:51:07;;;;;;;21.93;2.20;;;11.70;99.90;;;;;;5029036;28;20612;-80
2023/11/14 02:53:33;;;;;;;24.45;3.08;;;11.70;99.90;;;;;;5026382;28;20183;-80
2023/11/14 02:56:00;;;;;;;32.73;4.40;;;11.70;99.90;;;;;;5027034;28;20690;-80
2023/11/14 02:58:26;;;;;;;33.22;3.50;;;11.70;99.90;;;;;;5027485;28;20209;-80
2023/11/14 03:00:52;;;;;;;31.07;4.07;;;11.70;99.90;;;;;;5026759;28;20178;-80
2023/11/14 03:03:19;;;;;;;28.40;3.40;;;11.70;99.90;;;;;;5026429;28;20425;-79
2023/11/14 03:05:45;;;;;;;36.05;3.03;;;11.70;99.90;;;;;;5025871;28;20321;-80
2023/11/14 03:08:11;;;;;;;27.88;3.13;;;11.70;99.90;;;;;;5023446;28;20178;-80
2023/11/14 03:10:38;;;;;;;28.95;3.50;;;11.60;99.90;;;;;;5025628;28;20177;-80
2023/11/14 03:13:05;;;;;;;24.50;2.88;;;11.60;99.90;;;;;;5025860;28;20205;-80
2023/11/14 03:15:31;;;;;;;39.03;5.00;;;11.60;99.90;;;;;;5024453;28;20171;-80
2023/11/14 03:17:58;;;;;;;33.33;3.75;;;11.60;99.90;;;;;;5025324;28;20651;-80
2023/11/14 03:20:27;;;;;;;27.13;3.17;;;11.60;99.90;;;;;;5023464;28;20185;-80
2023/11/14 03:22:53;;;;;;;39.08;4.72;;;11.60;99.90;;;;;;5025343;28;20190;-80
2023/11/14 03:25:18;;;;;;;30.40;3.65;;;11.60;99.90;;;;;;5025143;28;20202;-80
2023/11/14 03:27:45;;;;;;;36.13;5.37;;;11.60;99.90;;;;;;5025593;28;20170;-80
2023/11/14 03:30:12;;;;;;;30.17;3.80;;;11.60;99.90;;;;;;5025731;28;20181;-80
2023/11/14 03:32:37;;;;;;;33.15;3.00;;;11.60;99.90;;;;;;5023708;28;20162;-80
2023/11/14 03:35:04;;;;;;;24.60;3.27;;;11.60;99.90;;;;;;5024710;28;20245;-80
2023/11/14 03:37:30;;;;;;;35.63;5.03;;;11.60;99.90;;;;;;5025390;28;20544;-79
2023/11/14 03:39:56;;;;;;;29.63;3.25;;;11.60;99.90;;;;;;5107910;22;20292;-79
2023/11/14 03:42:21;;;;;;;28.67;3.97;;;11.60;99.90;;;;;;5110521;22;20230;-80
2023/11/14 03:44:48;;;;;;;31.60;4.67;;;11.70;99.90;;;;;;5022494;28;20195;-80
2023/11/14 03:47:13;;;;;;;30.92;3.45;;;11.70;99.90;;;;;;5023457;28;20163;-80
2023/11/14 03:49:39;;;;;;;26.53;3.27;;;11.70;99.90;;;;;;5027447;28;20168;-81
2023/11/14 03:52:06;;;;;;;32.00;2.93;;;11.70;99.90;;;;;;5030468;28;20401;-80
2023/11/14 03:54:32;;;;;;;25.75;3.30;;;11.70;99.90;;;;;;5028198;28;20225;-80
2023/11/14 03:56:58;;;;;;;24.88;3.15;;;11.70;99.90;;;;;;5028494;28;20505;-80
2023/11/14 03:59:23;;;;;;;33.90;3.57;;;11.70;99.90;;;;;;5028505;28;20166;-81
2023/11/14 04:01:49;;;;;;;30.77;4.83;;;11.70;99.90;;;;;;5030516;28;20242;-81
2023/11/14 04:04:18;;;;;;;33.43;4.20;;;11.70;99.90;;;;;;5029506;28;20198;-80
2023/11/14 04:06:43;;;;;;;28.67;3.75;;;11.70;99.90;;;;;;5029688;28;20174;-80
2023/11/14 04:09:10;;;;;;;34.73;3.30;;;11.70;99.90;;;;;;5027791;28;20173;-80
2023/11/14 04:11:47;;;;;;;27.42;3.63;;;11.70;99.90;;;;;;5028657;28;20166;-80
2023/11/14 04:14:13;;;;;;;29.13;4.15;;;11.70;99.90;;;;;;5027436;28;20217;-80
2023/11/14 04:16:38;;;;;;;33.70;3.53;;;11.80;99.90;;;;;;5029883;28;20173;-80
2023/11/14 04:19:04;;;;;;;24.53;2.40;;;11.80;99.90;;;;;;5029214;28;20393;-80
2023/11/14 04:21:30;;;;;;;27.47;3.57;;;11.80;99.90;;;;;;5028912;28;20178;-80
2023/11/14 04:23:56;;;;;;;30.40;3.27;;;11.90;99.90;;;;;;5028582;28;20464;-80
2023/11/14 04:26:22;;;;;;;35.07;5.00;;;11.90;99.90;;;;;;5028438;28;20421;-80
2023/11/14 04:28:48;;;;;;;25.10;3.30;;;12.00;99.90;;;;;;5029159;28;20162;-79
2023/11/14 04:31:14;;;;;;;26.20;3.63;;;12.00;99.90;;;;;;5029951;28;20393;-80
2023/11/14 04:33:40;;;;;;;25.50;3.10;;;12.00;99.90;;;;;;5028381;28;20198;-80
2023/11/14 04:36:07;;;;;;;27.87;3.10;;;12.00;99.90;;;;;;5027461;28;20500;-80
2023/11/14 04:38:35;;;;;;;36.85;5.00;;;12.00;99.90;;;;;;5029345;28;20429;-80
2023/11/14 04:41:01;;;;;;;26.20;3.20;;;12.00;99.90;;;;;;5029902;28;20228;-80
2023/11/14 04:43:26;;;;;;;28.07;4.33;;;12.00;99.90;;;;;;5030007;28;20208;-80
2023/11/14 04:45:52;;;;;;;29.43;3.70;;;12.00;99.90;;;;;;5029542;28;20230;-80
2023/11/14 04:48:18;;;;;;;28.13;4.00;;;12.00;99.90;;;;;;5028938;28;20190;-80
2023/11/14 04:50:43;;;;;;;30.27;3.73;;;12.10;99.90;;;;;;5029162;28;20170;-80
2023/11/14 04:53:09;;;;;;;30.93;3.83;;;12.10;99.90;;;;;;5035110;28;20210;-80
2023/11/14 04:55:35;;;;;;;34.53;3.97;;;12.10;99.90;;;;;;5034508;28;20647;-80
2023/11/14 04:58:04;;;;;;;33.83;3.87;;;12.10;99.90;;;;;;5034048;28;20175;-80
2023/11/14 05:00:29;;;;;;;33.05;3.35;;;12.10;99.90;;;;;;5034825;28;20760;-80
2023/11/14 05:02:55;;;;;;;41.13;3.67;;;12.10;99.90;;;;;;5033055;28;20182;-80
2023/11/14 05:05:21;;;;;;;31.90;3.93;;;12.00;99.90;;;;;;5034117;28;20332;-81
2023/11/14 05:07:47;;;;;;;25.27;2.47;;;12.00;99.90;;;;;;5032665;28;20229;-80
2023/11/14 05:10:16;;;;;;;29.93;3.60;;;12.00;99.90;;;;;;5035334;28;20177;-81
2023/11/14 05:12:41;;;;;;;27.20;3.67;;;12.00;99.90;;;;;;5034899;28;20224;-80
2023/11/14 05:15:07;;;;;;;33.17;3.77;;;12.00;99.90;;;;;;5033670;28;20187;-80
2023/11/14 05:17:34;;;;;;;33.75;3.35;;;12.00;99.90;;;;;;5033277;28;20171;-80
2023/11/14 05:20:01;;;;;;;31.73;3.67;;;12.00;99.90;;;;;;5034598;28;20166;-80
2023/11/14 05:22:26;;;;;;;29.17;3.72;;;12.00;99.90;;;;;;5034033;28;20184;-80
2023/11/14 05:24:52;;;;;;;26.43;3.00;;;12.00;99.90;;;;;;5033564;28;20221;-80
2023/11/14 05:27:19;;;;;;;31.33;3.03;;;12.00;99.90;;;;;;5032341;28;20438;-80
2023/11/14 05:29:45;;;;;;;35.88;4.25;;;12.00;99.90;;;;;;5032198;28;20411;-80
2023/11/14 05:32:11;;;;;;;30.17;4.05;;;12.00;99.90;;;;;;5034319;28;20252;-80
2023/11/14 05:34:36;;;;;;;31.93;3.63;;;12.00;99.90;;;;;;5033876;28;20277;-80
2023/11/14 05:37:04;;;;;;;37.17;4.97;;;12.00;99.90;;;;;;5033822;28;20186;-80
2023/11/14 05:39:30;;;;;;;27.77;3.05;;;12.00;99.90;;;;;;5034410;28;20177;-81
2023/11/14 05:41:55;;;;;;;27.07;3.13;;;12.00;99.90;;;;;;5032363;28;20187;-80
2023/11/14 05:44:21;;;;;;;33.53;4.00;;;11.90;99.90;;;;;;5033802;28;20453;-80
2023/11/14 05:46:47;;;;;;;27.43;3.43;;;11.90;99.90;;;;;;5033502;28;20437;-80
2023/11/14 05:49:13;;;;;;;38.73;4.73;;;11.90;99.90;;;;;;5033190;28;20171;-81
2023/11/14 05:51:40;;;;;;;30.05;3.42;;;12.00;99.90;;;;;;5033858;28;20173;-80
2023/11/14 05:54:06;;;;;;;27.70;2.97;;;11.90;99.90;;;;;;5032618;28;20186;-80
2023/11/14 05:56:31;;;;;;;24.83;3.10;;;11.90;99.90;;;;;;5031678;28;20167;-80
2023/11/14 05:58:57;;;;;;;27.10;3.20;;;11.90;99.90;;;;;;5031497;28;20201;-80
2023/11/14 06:01:23;;;;;;;29.77;3.40;;;11.90;99.90;;;;;;5032289;28;20194;-80
2023/11/14 06:03:49;;;;;;;25.48;2.88;;;11.90;99.90;;;;;;5032642;28;20242;-80
2023/11/14 06:06:15;;;;;;;30.02;2.40;;;11.90;99.90;;;;;;5031644;28;20163;-80
2023/11/14 06:08:41;;;;;;;24.57;3.17;;;11.90;99.90;;;;;;5032643;28;20178;-80
2023/11/14 06:11:08;;;;;;;27.03;3.20;;;11.90;99.90;;;;;;5032281;28;20405;-80
2023/11/14 06:13:38;;;;;;;32.05;3.80;;;11.90;99.90;;;;;;5032578;28;20210;-80
2023/11/14 06:16:04;;;;;;;28.90;2.85;;;11.90;99.90;;;;;;5032240;28;20181;-80
2023/11/14 06:18:30;;;;;;;28.10;3.42;;;11.90;99.90;;;;;;5031774;28;20181;-80
2023/11/14 06:20:59;;;;;;;27.63;3.28;;;11.90;99.90;;;;;;5031644;28;20171;-80
2023/11/14 06:23:24;;;;;;;32.90;4.15;;;12.00;99.90;;;;;;5031703;28;20197;-80
2023/11/14 06:25:50;;;;;;;27.23;3.10;;;12.00;99.90;;;;;;5031992;28;20213;-80
2023/11/14 06:28:16;;;;;;;29.27;3.57;;;12.00;99.90;;;;;;5031695;28;20480;-80
2023/11/14 06:30:42;;;;;;;30.57;3.20;;;12.00;99.90;;;;;;5032536;28;20855;-80
2023/11/14 06:33:07;;;;;;;27.70;3.43;;;12.00;99.90;;;;;;5032395;28;20185;-80
2023/11/14 06:35:33;;;;;;;37.20;4.53;;;12.00;99.90;;;;;;5029603;28;20513;-80
2023/11/14 06:38:01;;;;;;;27.03;4.37;;;12.00;99.90;;;;;;5031113;28;20174;-81
2023/11/14 06:40:27;;;;;;;32.55;3.60;;;12.00;99.90;;;;;;5030931;28;20174;-80
2023/11/14 06:42:53;;;;;;;41.83;4.50;;;12.00;99.90;;;;;;5030815;28;20214;-80
2023/11/14 06:45:18;;;;;;;28.83;3.50;;;11.90;99.90;;;;;;5031408;28;20191;-80
2023/11/14 06:47:44;;;;;;;25.20;2.80;;;11.90;99.90;;;;;;5031365;28;20246;-79
2023/11/14 06:50:10;;;;;;;26.97;3.90;;;11.90;99.90;;;;;;5030985;28;20173;-79
2023/11/14 06:52:36;;;;;;;27.40;2.90;;;11.90;99.90;;;;;;5030821;28;20167;-80
2023/11/14 06:55:03;;;;;;;26.65;3.65;;;11.90;99.90;;;;;;5029523;28;20417;-79
2023/11/14 06:57:28;;;;;;;28.52;4.45;;;11.90;99.90;;;;;;5031273;28;20171;-80
2023/11/14 06:59:54;;;;;;;36.67;4.13;;;12.00;99.90;;;;;;5031158;28;20181;-80
2023/11/14 07:02:21;;;;;;;31.00;3.67;;;12.00;99.90;;;;;;5030268;28;20218;-79
2023/11/14 07:04:47;;;;;;;26.38;3.10;;;12.00;99.90;;;;;;5030139;28;20252;-80
2023/11/14 07:07:12;;;;;;;30.73;3.60;;;12.00;99.90;;;;;;5030758;28;20162;-80
2023/11/14 07:09:38;;;;;;;27.83;3.10;;;12.00;99.90;;;;;;5030685;28;20166;-80
2023/11/14 07:12:04;;;;;;;34.53;4.00;;;12.00;99.90;;;;;;5030636;28;20169;-80
2023/11/14 07:14:29;;;;;;;33.40;3.33;;;12.00;99.90;;;;;;5028840;28;20220;-79
2023/11/14 07:16:56;;;;;;;27.20;3.03;;;12.10;99.90;;;;;;5031334;28;20402;-79
2023/11/14 07:19:21;;;;;;;26.35;3.00;;;12.10;99.90;;;;;;5030443;28;20175;-80
2023/11/14 07:21:47;;;;;;;31.70;3.30;;;12.10;99.90;;;;;;5032267;28;20166;-79
2023/11/14 07:24:14;;;;;;;28.20;2.77;;;12.10;99.90;;;;;;5030831;28;20253;-80
2023/11/14 07:26:43;;;;;;;26.00;2.88;;;12.20;99.90;;;;;;5031373;28;20386;-79
2023/11/14 07:29:10;;;;;;;32.80;4.20;;;12.20;99.90;;;;;;5030733;28;20170;-80
2023/11/14 07:31:36;;;;;;;28.02;3.53;;;12.20;99.90;;;;;;5031089;28;20227;-80
2023/11/14 07:34:03;;;;;;;31.43;4.00;;;12.20;99.90;;;;;;5029984;28;20178;-80
2023/11/14 07:36:28;;;;;;;34.22;3.45;;;12.20;99.90;;;;;;5031056;28;20913;-80
2023/11/14 07:38:54;;;;;;;24.83;2.83;;;12.20;99.90;;;;;;5030478;28;20163;-79
2023/11/14 07:41:20;;;;;;;30.57;3.03;;;12.20;99.90;;;;;;5029704;28;20166;-79
2023/11/14 07:43:46;;;;;;;31.57;3.63;;;12.30;99.90;;;;;;5031069;28;20274;-79
2023/11/14 07:46:11;;;;;;;30.40;3.90;;;12.30;99.90;;;;;;5030050;28;20441;-80
2023/11/14 07:48:38;;;;;;;34.90;2.70;;;12.30;99.90;;;;;;5030887;28;20170;-80
2023/11/14 07:51:04;;;;;;;33.92;3.00;;;12.30;99.90;;;;;;5030299;28;20170;-79
2023/11/14 07:53:29;;;;;;;28.50;3.70;;;12.30;99.90;;;;;;5030454;28;20178;-80
2023/11/14 07:55:56;;;;;;;25.87;3.37;;;12.30;99.90;;;;;;5030645;28;20177;-79
2023/11/14 07:58:25;;;;;;;27.85;2.70;;;12.30;99.90;;;;;;5027528;28;20185;-79
2023/11/14 08:00:51;;;;;;;29.73;3.25;;;12.40;99.90;;;;;;5030734;28;20186;-80
2023/11/14 08:03:17;;;;;;;28.65;2.88;;;12.40;99.90;;;;;;5030502;28;20182;-80
2023/11/14 08:05:42;;;;;;;26.80;2.90;;;12.40;99.90;;;;;;5029057;28;20217;-80
2023/11/14 08:08:09;;;;;;;23.83;2.53;;;12.40;99.90;;;;;;5030516;28;20171;-80
2023/11/14 08:10:36;;;;;;;30.17;2.65;;;12.40;99.90;;;;;;5030410;28;20624;-80
2023/11/14 08:13:01;;;;;;;26.05;2.75;;;12.40;99.90;;;;;;5030216;28;20640;-80
2023/11/14 08:15:27;;;;;;;28.13;2.83;;;12.50;99.90;;;;;;5030624;28;20171;-80
2023/11/14 08:17:54;;;;;;;24.67;2.60;;;12.50;99.90;;;;;;5028653;28;20177;-80
2023/11/14 08:20:20;;;;;;;27.85;3.40;;;12.60;99.90;;;;;;5029785;28;20189;-80
2023/11/14 08:22:45;;;;;;;28.90;3.00;;;12.60;99.90;;;;;;5029314;28;20170;-79
2023/11/14 08:25:14;;;;;;;26.03;2.43;;;12.60;99.90;;;;;;5029975;28;20195;-80
2023/11/14 08:27:42;;;;;;;27.35;2.70;;;12.70;99.90;;;;;;5028832;28;20174;-79
2023/11/14 08:30:09;;;;;;;25.50;2.53;;;12.70;99.90;;;;;;5027756;28;20193;-79
2023/11/14 08:32:35;;;;;;;27.38;3.40;;;12.70;99.90;;;;;;5029256;28;20162;-80
2023/11/14 08:35:03;;;;;;;23.80;2.70;;;12.70;99.90;;;;;;5028775;28;20202;-79
2023/11/14 08:37:31;;;;;;;27.00;2.90;;;12.80;99.90;;;;;;5028992;28;20167;-80
2023/11/14 08:39:57;;;;;;;29.00;3.08;;;12.80;99.90;;;;;;5027887;28;20194;-80
2023/11/14 08:42:23;;;;;;;24.93;2.80;;;12.80;99.90;;;;;;5028464;28;20214;-80
2023/11/14 08:44:51;;;;;;;22.80;2.60;;;12.80;99.90;;;;;;5027159;28;20244;-79
2023/11/14 08:47:17;;;;;;;25.45;3.22;;;12.80;99.90;;;;;;5028555;28;20162;-79
2023/11/14 08:49:43;;;;;;;26.13;3.85;;;12.90;99.90;;;;;;5028690;28;20253;-79
2023/11/14 08:52:09;;;;;;;25.30;2.83;;;12.90;99.90;;;;;;5030221;28;20170;-80
2023/11/14 08:54:35;;;;;;;25.97;2.43;;;12.90;99.90;;;;;;5030168;28;20191;-80
2023/11/14 08:57:01;;;;;;;25.52;2.72;;;13.00;99.90;;;;;;5029586;28;20171;-79
2023/11/14 08:59:27;;;;;;;25.48;2.75;;;13.00;99.90;;;;;;5028791;28;20213;-80
2023/11/14 09:01:53;;;;;;;29.27;2.83;;;13.00;99.90;;;;;;5029164;28;20636;-80
2023/11/14 09:04:18;;;;;;;25.27;2.53;;;13.00;99.90;;;;;;5028300;28;20234;-79
2023/11/14 09:06:44;;;;;;;26.73;2.70;;;13.00;99.90;;;;;;5029424;28;20166;-80
2023/11/14 09:09:10;;;;;;;30.58;3.20;;;13.00;99.90;;;;;;5029244;28;20163;-80
2023/11/14 09:11:37;;;;;;;25.20;2.70;;;13.00;99.90;;;;;;5029588;28;20161;-79
2023/11/14 09:14:03;;;;;;;23.50;2.30;;;13.10;99.90;;;;;;5031213;28;20612;-80
2023/11/14 09:16:29;;;;;;;25.33;2.43;;;13.10;99.90;;;;;;5029520;28;20179;-79
2023/11/14 09:18:56;;;;;;;32.70;3.50;;;13.20;99.90;;;;;;5029265;28;20174;-79
2023/11/14 09:21:21;;;;;;;26.90;2.63;;;13.20;99.90;;;;;;5028968;28;20205;-79
2023/11/14 09:23:47;;;;;;;29.70;3.00;;;13.20;99.90;;;;;;5028071;28;20655;-79
2023/11/14 09:26:13;;;;;;;22.70;2.50;;;13.20;99.90;;;;;;5028834;28;20267;-79
2023/11/14 09:28:40;;;;;;;21.83;2.30;;;13.30;99.90;;;;;;5028095;28;20217;-80
2023/11/14 09:31:06;;;;;;;25.35;2.55;;;13.30;99.90;;;;;;5028649;28;20394;-79
2023/11/14 09:33:35;;;;;;;29.40;3.05;;;13.30;99.90;;;;;;5029555;28;20179;-80
2023/11/14 09:36:01;;;;;;;22.25;2.92;;;13.30;99.90;;;;;;5029661;28;20178;-80
2023/11/14 09:38:27;;;;;;;28.48;2.47;;;13.30;99.90;;;;;;5032470;28;20174;-79
2023/11/14 09:40:53;;;;;;;31.80;2.50;;;13.40;99.90;;;;;;5032934;28;20230;-79
2023/11/14 09:43:21;;;;;;;26.95;2.58;;;13.40;99.90;;;;;;5031532;28;20286;-79
2023/11/14 09:45:48;;;;;;;22.58;2.30;;;13.30;99.90;;;;;;5031426;28;20190;-79
2023/11/14 09:48:14;;;;;;;21.27;1.90;;;13.40;99.90;;;;;;5032092;28;20163;-80
2023/11/14 09:50:46;;;;;;;26.50;2.57;;;13.40;99.90;;;;;;5033007;28;20181;-79
2023/11/14 09:53:13;;;;;;;23.95;2.47;;;13.40;99.90;;;;;;5031509;28;20456;-79
2023/11/14 09:55:39;;;;;;;28.83;2.65;;;13.40;99.90;;;;;;5032578;28;20735;-80
2023/11/14 09:58:08;;;;;;;27.02;3.08;;;13.40;99.90;;;;;;5032110;28;20186;-79
2023/11/14 10:00:34;;;;;;;30.23;2.55;;;13.40;99.90;;;;;;5032034;28;20170;-79
2023/11/14 10:03:03;;;;;;;21.00;1.60;;;13.40;99.90;;;;;;5032034;28;20178;-79
2023/11/14 10:05:29;;;;;;;24.98;2.42;;;13.50;99.90;;;;;;5031703;28;20186;-79
2023/11/14 10:07:55;;;;;;;25.50;2.38;;;13.50;99.90;;;;;;5032678;28;20189;-79
2023/11/14 10:10:21;;;;;;;26.85;1.70;;;13.50;99.90;;;;;;5030936;28;20162;-79
2023/11/14 10:12:47;;;;;;;26.80;2.50;;;13.50;99.90;;;;;;5033363;28;20644;-80
2023/11/14 10:15:25;;;;;;;26.43;1.83;;;13.50;99.90;;;;;;5033307;28;20174;-79
2023/11/14 10:17:51;;;;;;;20.88;1.95;;;13.50;99.90;;;;;;5033013;28;20433;-79
2023/11/14 10:20:18;;;;;;;22.80;2.53;;;13.50;99.90;;;;;;5033663;28;20166;-79
2023/11/14 10:23:03;;;;;;;22.15;2.45;;;13.60;99.90;;;;;;5033247;28;20178;-79
2023/11/14 10:25:31;;;;;;;21.33;1.70;;;13.60;99.90;;;;;;5032178;28;20192;-79
2023/11/14 10:28:04;;;;;;;20.23;2.03;;;13.60;99.90;;;;;;5032165;28;20186;-79
2023/11/14 10:30:41;;;;;;;27.13;2.10;;;13.70;99.90;;;;;;5032555;28;20146;-79
2023/11/14 10:33:08;;;;;;;22.15;2.60;;;13.80;99.90;;;;;;5033238;28;20428;-79
2023/11/14 10:35:33;;;;;;;23.50;2.05;;;13.80;99.90;;;;;;5030263;28;20178;-79
2023/11/14 10:38:21;;;;;;;20.40;2.00;;;13.80;99.90;;;;;;5030684;28;20162;-79
2023/11/14 10:40:49;;;;;;;23.58;2.25;;;13.80;99.90;;;;;;5032332;28;20614;-79
2023/11/14 10:43:29;;;;;;;22.10;2.38;;;13.80;99.90;;;;;;5033170;28;20221;-79
2023/11/14 10:45:58;;;;;;;24.40;2.93;;;13.70;99.90;;;;;;5031311;28;20216;-79
2023/11/14 10:48:25;;;;;;;23.08;1.83;;;13.70;99.90;;;;;;5027846;28;20406;-79
2023/11/14 10:50:52;;;;;;;22.60;2.00;;;13.70;99.90;;;;;;5023983;28;20591;-79
2023/11/14 10:53:18;;;;;;;31.70;3.22;;;13.50;99.90;;;;;;5023224;28;20232;-79
2023/11/14 10:55:46;;;;;;;25.50;2.58;;;13.40;99.90;;;;;;5023363;28;20198;-78
2023/11/14 10:58:12;;;;;;;23.97;2.03;;;13.30;99.90;;;;;;5025026;28;20170;-79
2023/11/14 11:00:39;;;;;;;24.20;2.05;;;13.30;99.90;;;;;;5025880;28;20405;-78
2023/11/14 11:03:05;;;;;;;25.17;2.38;;;13.20;99.90;;;;;;5025729;28;20194;-78
2023/11/14 11:05:32;;;;;;;33.28;2.30;;;13.20;99.90;;;;;;5025496;28;20210;-79
2023/11/14 11:08:05;;;;;;;23.95;2.28;;;13.20;99.90;;;;;;5026623;28;20171;-79
2023/11/14 11:10:32;;;;;;;29.15;4.38;;;13.20;99.90;;;;;;5026695;28;20567;-79
2023/11/14 11:13:14;;;;;;;27.52;3.05;;;13.10;99.90;;;;;;5025812;28;20162;-79
2023/11/14 11:19:00;;;;;;;32.97;2.85;;;13.10;99.90;;;;;;5045406;28;20202;-79
2023/11/14 11:21:26;;;;;;;25.65;2.45;;;13.20;99.90;;;;;;5049743;28;20189;-79
2023/11/14 11:24:13;;;;;;;29.70;3.60;;;13.20;99.90;;;;;;5049823;28;20192;-79
2023/11/14 11:27:08;;;;;;;27.88;2.80;;;13.30;99.90;;;;;;5049303;28;20204;-79
2023/11/14 11:29:51;;;;;;;31.40;2.55;;;13.40;99.90;;;;;;5049387;28;20188;-79
2023/11/14 11:32:35;;;;;;;28.30;2.25;;;13.40;99.90;;;;;;5048179;28;20157;-79
2023/11/14 11:35:19;;;;;;;26.15;2.30;;;13.40;99.90;;;;;;5047964;28;20182;-79
2023/11/14 11:38:39;;;;;;;23.67;2.22;;;13.40;99.90;;;;;;5049340;28;20166;-80
2023/11/14 11:41:16;;;;;;;25.10;2.13;;;13.30;99.90;;;;;;5044704;28;20181;-79
2023/11/14 11:43:44;;;;;;;25.10;2.10;;;13.20;99.90;;;;;;5044501;28;20181;-78
2023/11/14 11:46:32;;;;;;;25.60;2.55;;;13.20;99.90;;;;;;5040991;28;20209;-78
2023/11/14 11:49:12;;;;;;;31.30;2.50;;;13.10;99.90;;;;;;5038475;28;20249;-78
2023/11/14 11:51:48;;;;;;;27.65;1.85;;;13.00;99.90;;;;;;5039584;28;20158;-78
2023/11/14 11:57:36;;;;;;;25.05;1.20;;;12.60;99.90;;;;;;5039430;28;20204;-78
2023/11/14 12:00:01;;;;;;;26.17;1.67;;;12.60;99.90;;;;;;5039694;28;20575;-79
2023/11/14 12:02:29;;;;;;;19.57;1.47;;;12.50;99.90;;;;;;5041267;28;20157;-79
2023/11/14 12:04:56;;;;;;;20.75;1.40;;;12.60;99.90;;;;;;5042670;28;20185;-79
2023/11/14 12:07:22;;;;;;;24.38;2.20;;;12.70;99.90;;;;;;5044109;28;20162;-79
2023/11/14 12:09:53;;;;;;;22.73;1.92;;;12.90;99.90;;;;;;5044381;28;20162;-79
2023/11/14 12:12:19;;;;;;;24.88;1.80;;;12.90;99.90;;;;;;5044994;28;20174;-79
2023/11/14 12:14:45;;;;;;;22.77;2.10;;;13.00;99.90;;;;;;5045430;28;20190;-79
2023/11/14 12:17:11;;;;;;;22.80;1.70;;;13.00;99.90;;;;;;5045098;28;20182;-80
2023/11/14 12:19:38;;;;;;;22.03;2.03;;;13.10;99.90;;;;;;5045907;28;20162;-80
2023/11/14 12:22:06;;;;;;;25.95;2.00;;;13.10;99.90;;;;;;5046402;28;20166;-80
2023/11/14 12:24:33;;;;;;;22.88;1.85;;;13.20;99.90;;;;;;5044531;28;20700;-80
2023/11/14 12:26:58;;;;;;;22.45;2.10;;;13.10;99.90;;;;;;5045814;28;20225;-80
2023/11/14 12:29:24;;;;;;;27.30;1.70;;;13.10;99.90;;;;;;5047292;28;20233;-80
2023/11/14 12:31:54;;;;;;;25.30;2.40;;;13.10;99.90;;;;;;5046361;28;20169;-80
2023/11/14 12:34:30;;;;;;;23.65;2.53;;;13.20;99.90;;;;;;5046167;28;20275;-79
2023/11/14 12:37:08;;;;;;;23.95;2.83;;;13.10;99.90;;;;;;5043411;28;20175;-79
2023/11/14 12:39:34;;;;;;;28.27;2.90;;;13.10;99.90;;;;;;5044772;28;20235;-79
2023/11/14 12:42:00;;;;;;;32.78;2.58;;;13.10;99.90;;;;;;5043501;28;20170;-79